Time;durP1;ratioP1;P1;durP2;ratioP2;P2;SDS_P1;SDS_P2;PMS_P1;PMS_P2;Temp;Humidity;BMP_temperature;BMP_pressure;BME280_temperature;BME280_humidity;BME280_pressure;Samples;Min_cycle;Max_cycle;Signal;HPM_P1;HPM_P2
2021/09/08 00:02:10;;;;;;;12.23;10.70;;;;;;;19.97;61.77;100627.69;4997793;28;20909;-80
2021/09/08 00:04:35;;;;;;;15.53;11.10;;;;;;;19.98;61.50;100627.41;5002592;28;20403;-80
2021/09/08 00:07:01;;;;;;;17.20;10.80;;;;;;;19.94;61.44;100620.88;5003369;28;20485;-80
2021/09/08 00:09:26;;;;;;;12.60;11.27;;;;;;;19.92;61.62;100627.78;4997221;28;20418;-80
2021/09/08 00:11:51;;;;;;;11.57;10.37;;;;;;;19.90;61.40;100621.75;5009561;28;20460;-80
2021/09/08 00:14:17;;;;;;;11.57;9.67;;;;;;;19.88;61.11;100619.34;5009405;28;20492;-80
2021/09/08 00:16:42;;;;;;;12.27;9.97;;;;;;;19.84;61.24;100611.97;4997163;28;20869;-80
2021/09/08 00:19:08;;;;;;;12.23;10.00;;;;;;;19.82;61.10;100622.47;5012289;28;20396;-80
2021/09/08 00:21:33;;;;;;;10.80;9.70;;;;;;;19.77;60.89;100615.13;5001316;28;20410;-80
2021/09/08 00:23:58;;;;;;;11.03;10.03;;;;;;;19.74;61.02;100614.91;4995205;28;20409;-80
2021/09/08 00:26:24;;;;;;;12.33;9.97;;;;;;;19.73;61.26;100608.59;4995535;28;20398;-80
2021/09/08 00:28:50;;;;;;;14.32;10.85;;;;;;;19.72;60.83;100606.16;5003858;28;20470;-80
2021/09/08 00:31:15;;;;;;;12.23;10.32;;;;;;;19.69;60.61;100604.84;5004669;28;20422;-80
2021/09/08 00:33:40;;;;;;;16.73;11.07;;;;;;;19.66;60.83;100605.41;5013356;28;20424;-80
2021/09/08 00:36:05;;;;;;;13.13;10.37;;;;;;;19.60;60.77;100595.63;4995726;28;20449;-80
2021/09/08 00:38:31;;;;;;;11.53;10.00;;;;;;;19.57;61.36;100605.28;4996119;28;20915;-80
2021/09/08 00:40:56;;;;;;;12.53;10.50;;;;;;;19.57;61.49;100610.78;4995495;28;20474;-80
2021/09/08 00:43:23;;;;;;;11.50;10.30;;;;;;;19.56;61.73;100603.66;5023722;28;20496;-80
2021/09/08 00:45:52;;;;;;;11.25;9.90;;;;;;;19.56;61.92;100602.84;5012946;28;20488;-80
2021/09/08 00:48:19;;;;;;;11.73;10.20;;;;;;;19.55;62.02;100601.22;5014779;28;20404;-80
2021/09/08 00:50:44;;;;;;;11.87;9.93;;;;;;;19.54;61.69;100603.16;5010265;28;20467;-80
2021/09/08 00:53:12;;;;;;;12.87;11.10;;;;;;;19.52;61.93;100599.91;5000608;28;20390;-80
2021/09/08 00:55:38;;;;;;;11.20;10.13;;;;;;;19.51;62.27;100600.19;4994965;28;20441;-80
2021/09/08 00:58:03;;;;;;;12.20;10.52;;;;;;;19.47;62.38;100602.72;5001029;28;20408;-80
2021/09/08 01:00:29;;;;;;;12.30;11.07;;;;;;;19.46;62.71;100603.03;5009134;28;20749;-80
2021/09/08 01:02:55;;;;;;;11.77;10.52;;;;;;;19.44;62.79;100602.50;5000214;28;20493;-80
2021/09/08 01:05:23;;;;;;;12.35;10.75;;;;;;;19.40;62.91;100605.03;4994859;28;20477;-80
2021/09/08 01:07:49;;;;;;;11.75;10.65;;;;;;;19.38;63.29;100600.91;4996543;28;20416;-80
2021/09/08 01:10:14;;;;;;;12.93;11.53;;;;;;;19.36;63.26;100595.75;4994669;28;20403;-80
2021/09/08 01:12:39;;;;;;;12.68;11.35;;;;;;;19.36;63.21;100592.16;4998431;28;20403;-80
2021/09/08 01:15:05;;;;;;;12.90;10.67;;;;;;;19.34;63.35;100594.38;4998412;28;20932;-79
2021/09/08 01:17:31;;;;;;;11.07;10.10;;;;;;;19.30;63.38;100599.66;5007859;28;20912;-80
2021/09/08 01:19:56;;;;;;;14.10;11.53;;;;;;;19.29;63.41;100592.53;5002736;28;20418;-80
2021/09/08 01:22:31;;;;;;;13.50;11.87;;;;;;;19.29;63.44;100589.81;4994490;28;20403;-80
2021/09/08 01:24:57;;;;;;;13.35;11.65;;;;;;;19.26;63.40;100586.84;4995533;28;20811;-80
2021/09/08 01:27:24;;;;;;;12.68;11.45;;;;;;;19.22;63.51;100586.63;5010989;28;20467;-80
2021/09/08 01:29:49;;;;;;;21.45;11.30;;;;;;;19.21;63.67;100579.47;5005082;28;20488;-80
2021/09/08 01:32:14;;;;;;;12.83;11.53;;;;;;;19.17;63.67;100581.19;4993457;28;20422;-80
2021/09/08 01:34:39;;;;;;;13.38;11.57;;;;;;;19.13;63.81;100582.91;4992362;28;20429;-80
2021/09/08 01:37:05;;;;;;;15.17;12.30;;;;;;;19.10;63.78;100578.81;4997902;28;20385;-80
2021/09/08 01:39:30;;;;;;;14.10;11.57;;;;;;;19.11;63.85;100577.72;5012334;28;20420;-80
2021/09/08 01:41:55;;;;;;;12.90;11.40;;;;;;;19.10;63.92;100578.00;5013598;28;20415;-80
2021/09/08 01:44:23;;;;;;;15.03;11.63;;;;;;;19.07;63.94;100567.59;4997534;28;20409;-80
2021/09/08 01:46:50;;;;;;;13.27;11.88;;;;;;;19.06;63.98;100574.22;4994034;28;20440;-80
2021/09/08 01:49:16;;;;;;;15.32;11.30;;;;;;;19.03;64.05;100570.13;4996848;28;20453;-80
2021/09/08 01:51:41;;;;;;;14.60;11.73;;;;;;;19.02;63.87;100565.78;5010379;28;20420;-79
2021/09/08 01:54:06;;;;;;;13.00;11.70;;;;;;;18.98;63.88;100567.47;5013597;28;20403;-80
2021/09/08 01:56:32;;;;;;;13.77;11.80;;;;;;;18.99;63.97;100565.53;5011136;28;20458;-80
2021/09/08 01:58:58;;;;;;;14.00;11.80;;;;;;;18.97;64.00;100562.25;4993640;28;20506;-80
2021/09/08 02:01:25;;;;;;;15.43;12.07;;;;;;;18.94;64.11;100560.94;4992846;28;20486;-80
2021/09/08 02:03:51;;;;;;;12.75;11.45;;;;;;;18.92;64.44;100565.09;5006350;28;20428;-80
2021/09/08 02:06:23;;;;;;;13.90;11.75;;;;;;;18.93;64.49;100559.31;4996373;28;20452;-80
2021/09/08 02:08:50;;;;;;;14.27;11.73;;;;;;;18.93;64.25;100564.81;4993887;28;20475;-80
2021/09/08 02:11:15;;;;;;;13.77;11.60;;;;;;;18.92;64.38;100565.09;5008566;28;20494;-80
2021/09/08 02:13:40;;;;;;;13.73;12.30;;;;;;;18.89;64.66;100558.28;4999929;28;20880;-80
2021/09/08 02:16:06;;;;;;;13.10;11.47;;;;;;;18.85;64.72;100561.91;4993758;28;20406;-80
2021/09/08 02:18:31;;;;;;;12.97;11.67;;;;;;;18.83;64.63;100551.25;4997604;28;20396;-80
2021/09/08 02:20:56;;;;;;;14.03;11.70;;;;;;;18.82;64.58;100551.53;4994307;28;20414;-80
2021/09/08 02:23:21;;;;;;;13.02;11.65;;;;;;;18.81;64.83;100558.13;5012978;28;20451;-80
2021/09/08 02:25:47;;;;;;;17.67;12.10;;;;;;;18.81;64.65;100552.63;5012755;28;20902;-80
2021/09/08 02:28:12;;;;;;;13.73;12.23;;;;;;;18.79;64.43;100547.44;4997008;28;20442;-80
2021/09/08 02:30:37;;;;;;;14.00;12.00;;;;;;;18.78;64.33;100544.97;5011050;28;20413;-80
2021/09/08 02:33:02;;;;;;;13.10;11.90;;;;;;;18.75;64.51;100545.56;5001978;28;20763;-80
2021/09/08 02:35:28;;;;;;;13.43;12.07;;;;;;;18.74;64.61;100538.47;4994190;28;20441;-80
2021/09/08 02:37:53;;;;;;;13.87;11.90;;;;;;;18.76;64.62;100538.97;4995993;28;21150;-80
2021/09/08 02:40:18;;;;;;;12.60;11.37;;;;;;;18.74;64.50;100536.53;5003774;28;20406;-80
2021/09/08 02:42:44;;;;;;;13.27;11.73;;;;;;;18.73;64.34;100534.91;4993130;28;21018;-80
2021/09/08 02:45:09;;;;;;;16.37;12.10;;;;;;;18.71;64.54;100530.81;5006270;28;20484;-80
2021/09/08 02:47:34;;;;;;;13.03;11.73;;;;;;;18.67;64.79;100531.41;5009254;28;20414;-80
2021/09/08 02:50:00;;;;;;;13.47;12.10;;;;;;;18.65;64.65;100530.91;5008866;28;20896;-80
2021/09/08 02:52:25;;;;;;;15.13;12.30;;;;;;;18.64;64.71;100532.00;4992761;28;20516;-80
2021/09/08 02:54:50;;;;;;;14.20;12.53;;;;;;;18.61;64.63;100529.03;5006687;28;20417;-80
2021/09/08 02:57:15;;;;;;;13.63;12.13;;;;;;;18.61;64.90;100527.09;4996612;28;20406;-80
2021/09/08 02:59:41;;;;;;;15.67;12.23;;;;;;;18.60;64.90;100527.41;5008730;28;20394;-80
2021/09/08 03:02:06;;;;;;;13.80;12.30;;;;;;;18.60;65.06;100520.00;5002333;28;20817;-80
2021/09/08 03:04:31;;;;;;;13.80;12.40;;;;;;;18.61;64.84;100529.03;4994019;28;20414;-80
2021/09/08 03:06:58;;;;;;;17.00;12.65;;;;;;;18.59;64.66;100523.84;4999417;28;20796;-80
2021/09/08 03:09:23;;;;;;;17.40;12.85;;;;;;;18.60;64.87;100520.00;5003858;28;20440;-80
2021/09/08 03:11:48;;;;;;;15.23;12.20;;;;;;;18.60;64.78;100530.97;5007533;28;20410;-80
2021/09/08 03:14:14;;;;;;;14.90;12.37;;;;;;;18.59;64.64;100514.78;5014351;28;20453;-80
2021/09/08 03:16:39;;;;;;;14.37;12.87;;;;;;;18.58;64.59;100522.22;4992253;28;20409;-80
2021/09/08 03:19:04;;;;;;;13.07;11.77;;;;;;;18.56;64.50;100518.97;4992050;28;20415;-80
2021/09/08 03:21:30;;;;;;;16.10;12.80;;;;;;;18.54;64.47;100515.66;4992529;28;20448;-80
2021/09/08 03:23:56;;;;;;;12.97;11.50;;;;;;;18.51;64.40;100516.25;5008520;28;20425;-80
2021/09/08 03:26:21;;;;;;;13.52;11.70;;;;;;;18.50;64.58;100513.84;4999429;28;20412;-80
2021/09/08 03:28:46;;;;;;;14.87;12.50;;;;;;;18.50;64.55;100503.69;5003135;28;20494;-79
2021/09/08 03:31:12;;;;;;;14.83;12.70;;;;;;;18.50;64.39;100511.91;4991010;28;20778;-81
2021/09/08 03:33:37;;;;;;;14.50;11.93;;;;;;;18.49;64.18;100507.50;4999788;28;20404;-79
2021/09/08 03:36:02;;;;;;;13.77;12.37;;;;;;;18.48;64.41;100511.34;5009148;28;20812;-81
2021/09/08 03:38:28;;;;;;;17.48;12.70;;;;;;;18.47;64.21;100517.97;5002786;28;20409;-81
2021/09/08 03:40:53;;;;;;;13.73;12.10;;;;;;;18.44;64.47;100509.50;4994886;28;20392;-81
2021/09/08 03:43:19;;;;;;;14.00;12.53;;;;;;;18.43;64.48;100511.44;5005153;28;20874;-81
2021/09/08 03:45:44;;;;;;;13.17;11.63;;;;;;;18.39;64.69;100515.88;5000712;28;20504;-81
2021/09/08 03:48:10;;;;;;;17.07;12.40;;;;;;;18.40;64.52;100508.44;4996418;28;20403;-81
2021/09/08 03:50:35;;;;;;;14.18;12.20;;;;;;;18.38;64.54;100514.22;5008159;28;20896;-82
2021/09/08 03:53:00;;;;;;;15.40;12.93;;;;;;;18.35;64.63;100509.31;5002329;28;20452;-81
2021/09/08 03:55:25;;;;;;;14.20;12.77;;;;;;;18.34;64.49;100515.13;5008584;28;20902;-81
2021/09/08 03:57:51;;;;;;;15.40;13.55;;;;;;;18.32;64.87;100498.94;5010569;28;20415;-81
2021/09/08 04:00:16;;;;;;;14.03;11.93;;;;;;;18.30;64.72;100503.91;4995333;28;20742;-81
2021/09/08 04:02:42;;;;;;;13.43;12.07;;;;;;;18.30;64.39;100505.84;4991840;28;20394;-81
2021/09/08 04:05:08;;;;;;;14.87;13.17;;;;;;;18.25;64.60;100501.22;5000160;28;20393;-81
2021/09/08 04:07:33;;;;;;;15.82;14.13;;;;;;;18.23;64.79;100499.91;4999966;28;20448;-82
2021/09/08 04:09:58;;;;;;;14.00;12.50;;;;;;;18.21;64.90;100497.44;5007064;28;20896;-81
2021/09/08 04:12:24;;;;;;;13.43;12.13;;;;;;;18.21;64.89;100491.94;5008283;28;20461;-82
2021/09/08 04:14:49;;;;;;;14.00;12.57;;;;;;;18.17;65.11;100490.94;4997113;28;20455;-81
2021/09/08 04:17:14;;;;;;;15.53;13.70;;;;;;;18.18;64.97;100491.75;4990817;28;20411;-79
2021/09/08 04:19:39;;;;;;;14.37;12.97;;;;;;;18.17;65.19;100490.09;4994268;28;20415;-81
2021/09/08 04:22:05;;;;;;;15.37;13.77;;;;;;;18.12;65.37;100493.72;4993564;28;20470;-82
2021/09/08 04:24:30;;;;;;;14.23;12.83;;;;;;;18.11;65.45;100498.38;4991783;28;20398;-81
2021/09/08 04:26:55;;;;;;;14.90;13.50;;;;;;;18.07;65.28;100496.53;4999815;28;20467;-82
2021/09/08 04:29:21;;;;;;;15.18;13.57;;;;;;;18.01;65.56;100487.53;5011239;28;20419;-82
2021/09/08 04:31:46;;;;;;;15.97;13.90;;;;;;;18.00;65.78;100493.34;4992984;28;20429;-82
2021/09/08 04:34:12;;;;;;;15.32;13.43;;;;;;;17.98;65.79;100498.31;4999015;28;20784;-79
2021/09/08 04:36:37;;;;;;;17.90;14.07;;;;;;;17.98;66.05;100495.56;4993607;28;20414;-82
2021/09/08 04:39:03;;;;;;;14.83;13.07;;;;;;;17.95;65.74;100494.19;4991680;28;20732;-82
2021/09/08 04:41:28;;;;;;;16.23;14.53;;;;;;;17.97;65.80;100499.41;4995184;28;20495;-82
2021/09/08 04:43:54;;;;;;;15.77;13.53;;;;;;;17.97;65.78;100491.19;4997944;28;20409;-82
2021/09/08 04:46:20;;;;;;;27.37;15.00;;;;;;;17.97;65.68;100492.00;5003866;28;20391;-81
2021/09/08 04:48:45;;;;;;;15.80;14.07;;;;;;;17.92;65.75;100492.03;5000997;28;20416;-81
2021/09/08 04:51:10;;;;;;;17.63;14.10;;;;;;;17.89;65.96;100498.13;4996883;28;20421;-81
2021/09/08 04:53:36;;;;;;;17.95;14.30;;;;;;;17.90;65.88;100497.00;4992303;28;20421;-81
2021/09/08 04:56:01;;;;;;;17.83;14.83;;;;;;;17.89;65.92;100495.38;4994109;28;20402;-81
2021/09/08 04:58:26;;;;;;;16.17;14.40;;;;;;;17.87;65.96;100494.03;4991535;28;20402;-81
2021/09/08 05:00:52;;;;;;;15.67;13.83;;;;;;;17.87;65.95;100503.09;5010605;28;20833;-81
2021/09/08 05:03:17;;;;;;;14.93;13.33;;;;;;;17.89;65.94;100492.63;4992626;28;20399;-81
2021/09/08 05:05:43;;;;;;;15.57;13.73;;;;;;;17.89;65.96;100494.56;5006618;28;20426;-81
2021/09/08 05:08:08;;;;;;;26.47;14.17;;;;;;;17.89;66.05;100492.63;5001627;28;20408;-81
2021/09/08 05:10:33;;;;;;;18.03;14.60;;;;;;;17.88;65.96;100492.94;5001528;28;20416;-81
2021/09/08 05:12:58;;;;;;;15.93;13.40;;;;;;;17.89;65.76;100491.81;5013835;28;20772;-81
2021/09/08 05:15:24;;;;;;;16.93;14.67;;;;;;;17.88;65.87;100490.19;5006174;28;20413;-82
2021/09/08 05:17:49;;;;;;;15.83;14.23;;;;;;;17.85;66.08;100488.84;4999666;28;20446;-81
2021/09/08 05:20:15;;;;;;;15.30;13.70;;;;;;;17.85;66.01;100488.84;4994506;28;20530;-81
2021/09/08 05:22:40;;;;;;;17.00;14.73;;;;;;;17.84;65.91;100494.63;4995712;28;20993;-81
2021/09/08 05:25:06;;;;;;;20.03;14.87;;;;;;;17.82;66.00;100491.34;5007961;28;20920;-81
2021/09/08 05:27:32;;;;;;;17.48;13.68;;;;;;;17.82;66.10;100491.34;4996934;28;20441;-82
2021/09/08 05:29:57;;;;;;;18.13;14.30;;;;;;;17.82;66.06;100497.66;4999044;28;20436;-82
2021/09/08 05:32:22;;;;;;;16.13;13.37;;;;;;;17.82;66.34;100505.03;5004090;28;20426;-82
2021/09/08 05:34:48;;;;;;;15.70;14.00;;;;;;;17.80;66.29;100499.06;5009414;28;20433;-82
2021/09/08 05:37:13;;;;;;;15.93;14.17;;;;;;;17.78;66.32;100499.38;5025987;28;20401;-82
2021/09/08 05:39:38;;;;;;;17.70;14.05;;;;;;;17.76;66.46;100498.00;5007187;28;20417;-82
2021/09/08 05:42:03;;;;;;;15.97;14.27;;;;;;;17.79;66.36;100498.22;5007119;28;20408;-82
2021/09/08 05:44:29;;;;;;;19.80;14.10;;;;;;;17.83;66.51;100501.22;5007430;28;20416;-81
2021/09/08 05:46:54;;;;;;;17.35;13.52;;;;;;;17.84;66.56;100502.84;5008031;28;20411;-80
2021/09/08 05:49:19;;;;;;;18.97;14.03;;;;;;;17.87;66.53;100497.59;5007007;28;20753;-82
2021/09/08 05:51:45;;;;;;;15.63;13.40;;;;;;;17.88;66.56;100496.47;5009209;28;20460;-81
2021/09/08 05:54:10;;;;;;;16.63;13.90;;;;;;;17.89;66.28;100503.59;5006900;28;20780;-80
2021/09/08 05:56:36;;;;;;;15.10;13.50;;;;;;;17.91;66.38;100503.31;5004901;28;20406;-81
2021/09/08 05:59:02;;;;;;;16.40;14.17;;;;;;;17.95;66.28;100507.09;5009193;28;20443;-79
2021/09/08 06:01:27;;;;;;;16.50;14.13;;;;;;;18.00;66.21;100501.56;5006254;28;20397;-79
2021/09/08 06:03:52;;;;;;;15.07;13.43;;;;;;;18.05;65.96;100501.47;5005619;28;20467;-80
2021/09/08 06:06:18;;;;;;;15.07;13.47;;;;;;;18.04;66.04;100508.09;5007098;28;21220;-80
2021/09/08 06:08:43;;;;;;;16.23;13.73;;;;;;;18.04;65.94;100503.44;5005087;28;20413;-81
2021/09/08 06:11:09;;;;;;;15.25;13.65;;;;;;;18.06;65.88;100501.22;5003607;28;20422;-80
2021/09/08 06:13:34;;;;;;;14.98;13.57;;;;;;;18.10;65.94;100502.25;5008237;28;20454;-80
2021/09/08 06:15:59;;;;;;;16.67;13.90;;;;;;;18.11;65.70;100503.06;5008815;28;20497;-81
2021/09/08 06:18:25;;;;;;;15.80;13.83;;;;;;;18.13;65.63;100503.59;5002948;28;20435;-81
2021/09/08 06:20:50;;;;;;;15.15;13.60;;;;;;;18.15;65.54;100499.44;5005717;28;20406;-81
2021/09/08 06:23:16;;;;;;;16.33;13.93;;;;;;;18.14;65.60;100503.28;5000257;28;20896;-81
2021/09/08 06:25:41;;;;;;;15.73;14.05;;;;;;;18.18;65.69;100497.22;4994188;28;20414;-83
2021/09/08 06:28:06;;;;;;;15.50;13.93;;;;;;;18.21;65.61;100489.19;5007567;28;20406;-80
2021/09/08 06:30:32;;;;;;;18.30;14.63;;;;;;;18.26;65.34;100489.16;4995276;28;20967;-81
2021/09/08 06:32:57;;;;;;;16.13;14.03;;;;;;;18.29;65.19;100487.75;5009526;28;20412;-80
2021/09/08 06:35:22;;;;;;;18.23;13.87;;;;;;;18.32;65.33;100487.97;4999388;28;20913;-81
2021/09/08 06:37:48;;;;;;;16.60;14.10;;;;;;;18.36;65.09;100483.53;5003217;28;20455;-79
2021/09/08 06:40:15;;;;;;;16.77;13.70;;;;;;;18.39;65.19;100482.94;5001191;28;20416;-80
2021/09/08 06:42:40;;;;;;;17.00;13.43;;;;;;;18.41;64.87;100486.19;4998648;28;20413;-81
2021/09/08 06:45:06;;;;;;;18.20;13.63;;;;;;;18.44;64.98;100484.81;5002060;28;20413;-80
2021/09/08 06:47:31;;;;;;;17.45;14.45;;;;;;;18.47;64.85;100486.94;5005893;28;20888;-80
2021/09/08 06:49:57;;;;;;;18.30;13.87;;;;;;;18.49;64.79;100485.53;4992713;28;20467;-81
2021/09/08 06:52:22;;;;;;;17.67;14.30;;;;;;;18.54;64.43;100479.19;4997166;28;20434;-80
2021/09/08 06:54:48;;;;;;;16.80;13.33;;;;;;;18.59;64.51;100479.13;5005052;28;20396;-80
2021/09/08 06:57:13;;;;;;;14.27;12.77;;;;;;;18.64;64.38;100481.75;4995205;28;20461;-82
2021/09/08 06:59:47;;;;;;;17.37;12.27;;;;;;;18.66;64.53;100482.31;4997181;28;20834;-83
2021/09/08 07:02:13;;;;;;;15.73;13.23;;;;;;;18.67;64.31;100475.72;4998676;28;21612;-82
2021/09/08 07:04:39;;;;;;;16.88;13.55;;;;;;;18.72;64.25;100469.31;5001369;28;20433;-82
2021/09/08 07:07:04;;;;;;;16.03;12.60;;;;;;;18.77;63.95;100475.53;4999931;28;20765;-83
2021/09/08 07:09:30;;;;;;;16.48;12.90;;;;;;;18.83;63.86;100470.78;5000617;28;20419;-84
2021/09/08 07:11:55;;;;;;;16.30;12.93;;;;;;;18.87;63.92;100467.13;4997998;28;20418;-83
2021/09/08 07:14:20;;;;;;;14.67;11.07;;;;;;;18.91;63.28;100468.16;5010857;28;20844;-83
2021/09/08 07:16:46;;;;;;;13.67;11.33;;;;;;;18.98;62.39;100465.84;4995164;28;20485;-83
2021/09/08 07:19:11;;;;;;;15.02;10.85;;;;;;;19.05;61.39;100470.97;5005587;28;20412;-83
2021/09/08 07:21:36;;;;;;;13.40;10.77;;;;;;;19.07;60.58;100465.97;4999975;28;20468;-83
2021/09/08 07:24:02;;;;;;;12.90;10.23;;;;;;;19.10;60.41;100460.69;4994525;28;20421;-83
2021/09/08 07:26:32;;;;;;;12.13;10.40;;;;;;;19.16;60.25;100467.72;4996106;28;20451;-83
2021/09/08 07:29:00;;;;;;;12.05;10.85;;;;;;;19.24;59.97;100462.66;4993565;28;20409;-82
2021/09/08 07:31:25;;;;;;;13.48;10.57;;;;;;;19.30;59.93;100458.72;4989793;28;20908;-82
2021/09/08 07:33:50;;;;;;;15.52;10.93;;;;;;;19.36;59.89;100463.81;4996535;28;20434;-81
2021/09/08 07:36:16;;;;;;;14.03;10.77;;;;;;;19.40;60.10;100459.38;4985295;28;20410;-82
2021/09/08 07:38:41;;;;;;;16.57;11.40;;;;;;;19.46;60.12;100462.84;4988909;28;20410;-81
2021/09/08 07:41:06;;;;;;;16.67;11.00;;;;;;;19.48;59.79;100458.69;4988206;28;20414;-82
2021/09/08 07:43:32;;;;;;;12.17;10.37;;;;;;;19.54;59.31;100454.72;4986751;28;20418;-82
2021/09/08 07:45:57;;;;;;;14.73;11.30;;;;;;;19.61;59.42;100455.13;5001854;28;20435;-82
2021/09/08 07:48:23;;;;;;;15.50;10.40;;;;;;;19.67;59.35;100451.16;5004027;28;20884;-84
2021/09/08 07:50:48;;;;;;;12.85;10.57;;;;;;;19.72;59.37;100449.44;4995366;28;20424;-82
2021/09/08 07:53:14;;;;;;;16.00;11.02;;;;;;;19.72;59.51;100447.50;5003362;28;20881;-81
2021/09/08 07:55:39;;;;;;;11.70;10.50;;;;;;;19.74;59.84;100449.94;4994822;28;20405;-81
2021/09/08 07:58:05;;;;;;;14.43;10.27;;;;;;;19.77;60.11;100452.88;5004252;28;20408;-81
2021/09/08 08:00:33;;;;;;;14.43;10.43;;;;;;;19.79;60.04;100447.09;4996341;28;20904;-79
2021/09/08 08:02:58;;;;;;;16.73;10.85;;;;;;;19.82;60.16;100450.03;5000711;28;20415;-80
2021/09/08 08:05:23;;;;;;;15.33;11.00;;;;;;;19.88;60.68;100443.31;4994304;28;20481;-80
2021/09/08 08:07:49;;;;;;;15.27;9.90;;;;;;;19.93;60.13;100442.38;5001055;28;20407;-81
2021/09/08 08:10:16;;;;;;;17.37;10.40;;;;;;;20.00;59.07;100440.03;4995793;28;20474;-78
2021/09/08 08:12:42;;;;;;;12.38;9.40;;;;;;;20.09;58.13;100425.22;4997823;28;20418;-78
2021/09/08 08:15:09;;;;;;;13.13;9.67;;;;;;;20.18;57.66;100433.59;4999545;28;20732;-79
2021/09/08 08:17:35;;;;;;;12.15;8.93;;;;;;;20.26;57.58;100426.50;4996744;28;20427;-80
2021/09/08 08:20:00;;;;;;;12.47;9.77;;;;;;;20.34;56.62;100426.66;5001490;28;20413;-80
2021/09/08 08:22:26;;;;;;;9.70;8.80;;;;;;;20.43;57.09;100430.28;5002822;28;20475;-83
2021/09/08 08:24:51;;;;;;;9.77;8.77;;;;;;;20.53;56.46;100429.22;4992174;28;20418;-81
2021/09/08 08:27:22;;;;;;;15.52;9.45;;;;;;;20.59;56.34;100419.72;5002742;28;20417;-80
2021/09/08 08:29:48;;;;;;;12.30;8.90;;;;;;;20.65;55.80;100415.72;5003965;28;20873;-80
2021/09/08 08:32:13;;;;;;;10.60;8.63;;;;;;;20.71;55.88;100417.22;5004264;28;20422;-80
2021/09/08 08:34:39;;;;;;;10.30;9.30;;;;;;;20.77;55.26;100417.91;4990505;28;20418;-80
2021/09/08 08:37:04;;;;;;;9.73;8.70;;;;;;;20.81;55.39;100416.16;5031746;28;20776;-80
2021/09/08 08:39:29;;;;;;;11.18;8.18;;;;;;;20.87;55.02;100412.16;5016258;28;20409;-80
2021/09/08 08:41:54;;;;;;;12.03;8.93;;;;;;;20.93;55.32;100416.41;4997743;28;20529;-79
2021/09/08 08:44:28;;;;;;;9.87;8.97;;;;;;;21.02;54.38;100407.06;4994485;28;20782;-78
2021/09/08 08:46:54;;;;;;;9.15;8.27;;;;;;;21.11;53.95;100407.94;5006947;28;20483;-78
2021/09/08 08:49:22;;;;;;;12.60;9.00;;;;;;;21.19;53.33;100409.13;5021259;28;20832;-79
2021/09/08 08:51:48;;;;;;;12.82;8.70;;;;;;;21.28;53.84;100412.72;5006039;28;20497;-80
2021/09/08 08:54:14;;;;;;;9.73;8.73;;;;;;;21.38;53.27;100404.19;5023021;28;20962;-82
2021/09/08 08:56:39;;;;;;;13.57;8.37;;;;;;;21.50;53.23;100404.41;5003027;28;20401;-81
2021/09/08 08:59:04;;;;;;;11.23;8.70;;;;;;;21.65;52.66;100398.47;4994152;28;20436;-80
2021/09/08 09:01:32;;;;;;;10.50;8.40;;;;;;;21.82;52.24;100400.44;5000851;28;20463;-80
2021/09/08 09:04:05;;;;;;;16.33;8.40;;;;;;;21.98;51.62;100393.38;5013996;28;20490;-82
2021/09/08 09:06:32;;;;;;;12.25;7.43;;;;;;;22.11;51.23;100388.84;5010041;28;20406;-82
2021/09/08 09:09:07;;;;;;;10.48;7.90;;;;;;;22.30;50.18;100392.09;5010999;28;20414;-81
2021/09/08 09:11:34;;;;;;;10.93;8.20;;;;;;;22.51;49.21;100386.75;5000030;28;20511;-80
2021/09/08 09:14:01;;;;;;;8.68;7.50;;;;;;;22.71;48.56;100394.41;5011754;28;20401;-80
2021/09/08 09:16:27;;;;;;;9.70;7.97;;;;;;;22.99;47.97;100390.09;4996717;28;20420;-81
2021/09/08 09:18:53;;;;;;;10.15;8.10;;;;;;;23.38;47.23;100394.53;5008301;28;20963;-82
2021/09/08 09:21:20;;;;;;;10.02;8.43;;;;;;;23.90;46.04;100394.31;4998604;28;20492;-81
2021/09/08 09:23:48;;;;;;;13.85;8.48;;;;;;;24.38;44.52;100385.50;5005958;28;20391;-81
2021/09/08 09:26:20;;;;;;;8.13;7.37;;;;;;;24.92;43.21;100383.56;5019019;28;20433;-81
2021/09/08 09:28:46;;;;;;;8.33;7.47;;;;;;;25.44;42.50;100379.03;5012578;28;20871;-82
2021/09/08 09:31:22;;;;;;;7.93;7.22;;;;;;;25.62;41.70;100385.22;5005116;28;20415;-82
2021/09/08 09:33:53;;;;;;;8.00;7.20;;;;;;;25.77;41.47;100379.75;5002106;28;20425;-82
2021/09/08 09:36:28;;;;;;;8.20;7.43;;;;;;;26.09;41.10;100377.16;4998208;28;20408;-82
2021/09/08 09:38:54;;;;;;;8.55;7.65;;;;;;;26.45;39.51;100376.25;4998232;28;20469;-82
2021/09/08 09:41:25;;;;;;;11.60;6.90;;;;;;;26.77;38.67;100373.22;5006813;28;20910;-82
2021/09/08 09:43:51;;;;;;;12.88;8.13;;;;;;;27.20;38.86;100375.19;5007797;28;20454;-82
2021/09/08 09:46:16;;;;;;;9.37;7.23;;;;;;;27.63;37.83;100379.09;4995743;28;20815;-82
2021/09/08 09:48:41;;;;;;;9.53;7.07;;;;;;;28.01;37.03;100367.25;4996399;28;20393;-82
2021/09/08 09:51:13;;;;;;;8.27;7.20;;;;;;;28.47;36.21;100371.06;5004291;28;20422;-82
2021/09/08 09:53:39;;;;;;;9.57;6.93;;;;;;;28.86;34.88;100372.66;5009889;28;20411;-81
2021/09/08 09:56:05;;;;;;;14.63;7.43;;;;;;;29.10;34.82;100375.13;4998851;28;20401;-82
2021/09/08 09:58:31;;;;;;;8.73;7.78;;;;;;;29.49;33.58;100367.44;4996523;28;20405;-81
2021/09/08 10:00:56;;;;;;;7.20;6.60;;;;;;;29.87;32.42;100360.88;5004311;28;20413;-82
2021/09/08 10:03:22;;;;;;;7.40;6.67;;;;;;;30.20;32.14;100358.16;5003091;28;20493;-82
2021/09/08 10:05:48;;;;;;;7.15;6.47;;;;;;;30.78;30.95;100357.69;4995987;28;20445;-84
2021/09/08 10:08:16;;;;;;;8.07;6.47;;;;;;;31.19;30.36;100345.31;5000840;28;20401;-83
2021/09/08 10:10:45;;;;;;;10.70;6.90;;;;;;;31.57;29.25;100348.88;4999615;28;20428;-83
2021/09/08 10:13:17;;;;;;;7.15;6.40;;;;;;;31.85;29.09;100344.25;5002991;28;20395;-84
2021/09/08 10:15:43;;;;;;;11.27;6.90;;;;;;;32.27;28.25;100346.50;5002776;28;20398;-85
2021/09/08 10:18:14;;;;;;;7.97;6.63;;;;;;;32.77;27.70;100338.28;5005679;28;20456;-84
2021/09/08 10:20:43;;;;;;;7.07;6.47;;;;;;;33.28;26.98;100335.19;4976457;28;20406;-84
2021/09/08 10:23:12;;;;;;;6.93;6.28;;;;;;;33.67;26.41;100338.00;4993479;28;20409;-85
2021/09/08 10:25:44;;;;;;;6.95;6.32;;;;;;;34.41;25.65;100335.00;4997197;28;20402;-85
2021/09/08 10:28:14;;;;;;;7.25;6.68;;;;;;;35.76;23.54;100329.22;4996256;28;20396;-85
2021/09/08 10:30:42;;;;;;;7.35;6.57;;;;;;;36.76;22.72;100330.44;5002919;28;20866;-86
2021/09/08 10:33:07;;;;;;;10.70;7.13;;;;;;;37.33;22.16;100335.22;5006012;28;20424;-86
2021/09/08 10:35:38;;;;;;;10.93;7.30;;;;;;;37.80;21.75;100336.84;4994669;28;20442;-85
2021/09/08 10:38:17;;;;;;;7.60;5.97;;;;;;;37.91;21.06;100330.94;4993071;28;20831;-85
2021/09/08 10:40:44;;;;;;;10.63;7.85;;;;;;;37.62;21.66;100319.38;4997150;28;20472;-84
2021/09/08 10:43:09;;;;;;;7.57;6.95;;;;;;;37.42;21.74;100315.66;4993072;28;20479;-85
2021/09/08 10:45:35;;;;;;;10.00;6.30;;;;;;;37.29;21.98;100320.34;5003643;28;20472;-85
2021/09/08 10:48:03;;;;;;;7.95;6.85;;;;;;;37.23;22.27;100316.41;5002054;28;20473;-85
2021/09/08 10:50:34;;;;;;;8.25;6.55;;;;;;;37.49;21.45;100315.59;4992940;28;20415;-84
2021/09/08 10:53:01;;;;;;;7.63;7.00;;;;;;;37.60;21.25;100309.75;5033589;28;20925;-84
2021/09/08 10:55:26;;;;;;;7.32;6.47;;;;;;;37.52;20.70;100311.88;4997243;28;20902;-84
2021/09/08 10:57:58;;;;;;;7.13;6.43;;;;;;;37.50;21.37;100305.06;5000441;28;20444;-84
2021/09/08 11:00:31;;;;;;;7.35;6.65;;;;;;;37.26;21.35;100299.41;5001648;28;20977;-85
2021/09/08 11:02:56;;;;;;;8.57;6.85;;;;;;;37.27;21.35;100303.03;4991730;28;20414;-84
2021/09/08 11:05:21;;;;;;;6.65;6.05;;;;;;;37.16;21.53;100291.91;4994296;28;20423;-85
2021/09/08 11:07:49;;;;;;;7.97;6.90;;;;;;;36.75;22.12;100292.13;5000353;28;20398;-84